Time;durP1;ratioP1;P1;durP2;ratioP2;P2;SDS_P1;SDS_P2;PMS_P1;PMS_P2;Temp;Humidity;BMP_temperature;BMP_pressure;BME280_temperature;BME280_humidity;BME280_pressure;Samples;Min_cycle;Max_cycle;Signal;HPM_P1;HPM_P2
2023/01/07 00:01:24;;;;;;;20.25;12.25;;;;;;;-148.88;100.00;76252.56;5013759;28;20037;-76
2023/01/07 00:03:51;;;;;;;24.15;13.13;;;;;;;-148.88;100.00;76248.50;5013748;28;20064;-76
2023/01/07 00:06:22;;;;;;;21.92;11.88;;;;;;;-148.88;100.00;76256.63;5015131;28;20026;-76
2023/01/07 00:08:49;;;;;;;29.08;22.08;;;;;;;-148.88;100.00;76254.59;5013856;28;20030;-76
2023/01/07 00:11:20;;;;;;;26.52;21.98;;;;;;;-148.88;100.00;76250.53;5015135;28;20442;-76
2023/01/07 00:13:48;;;;;;;26.23;22.35;;;;;;;-148.88;100.00;76248.50;5015482;28;20513;-78
2023/01/07 00:16:16;;;;;;;21.60;12.90;;;;;;;-148.88;100.00;76244.44;5016919;28;20037;-78
2023/01/07 00:18:42;;;;;;;26.48;22.25;;;;;;;-148.88;100.00;76240.38;5016701;28;20398;-78
2023/01/07 00:21:10;;;;;;;25.80;22.30;;;;;;;-148.88;100.00;76242.41;5016347;28;20057;-78
2023/01/07 00:23:37;;;;;;;21.45;12.15;;;;;;;-148.88;100.00;76248.50;5016648;28;20021;-78
2023/01/07 00:26:08;;;;;;;26.63;21.58;;;;;;;-148.88;100.00;76244.44;5014188;28;20518;-77
2023/01/07 00:28:36;;;;;;;25.70;21.38;;;;;;;-148.88;100.00;76236.31;5014484;28;20103;-77
2023/01/07 00:31:04;;;;;;;27.67;22.02;;;;;;;-148.88;100.00;76228.19;5015768;28;20036;-77
2023/01/07 00:33:29;;;;;;;25.98;22.20;;;;;;;-148.88;100.00;76224.13;5014247;28;20505;-77
2023/01/07 00:36:03;;;;;;;24.92;14.10;;;;;;;-148.88;100.00;76220.06;5014422;28;20030;-77
2023/01/07 00:38:29;;;;;;;21.77;12.13;;;;;;;-148.88;100.00;76224.13;5016172;28;20021;-77
2023/01/07 00:40:54;;;;;;;26.10;21.13;;;;;;;-148.88;100.00;76226.16;5015597;28;20041;-77
2023/01/07 00:43:20;;;;;;;24.67;21.65;;;;;;;-148.88;100.00;76218.03;5015051;28;20033;-77
2023/01/07 00:45:45;;;;;;;22.95;19.80;;;;;;;-148.88;100.00;76218.03;5013965;28;20030;-77
2023/01/07 00:48:11;;;;;;;23.20;20.33;;;;;;;-148.88;100.00;76220.06;5014937;28;20061;-77
2023/01/07 00:50:37;;;;;;;22.80;18.98;;;;;;;-148.88;100.00;76218.03;4997497;28;20512;-78
2023/01/07 00:53:03;;;;;;;19.13;11.23;;;;;;;-148.88;100.00;76220.06;5013828;28;20447;-77
2023/01/07 00:55:29;;;;;;;18.85;10.30;;;;;;;-148.88;100.00;76220.06;5014310;28;20549;-77
2023/01/07 00:57:55;;;;;;;20.65;18.42;;;;;;;-148.88;100.00;76213.97;5014173;28;20021;-78
2023/01/07 01:00:22;;;;;;;20.77;17.40;;;;;;;-148.88;100.00;76195.69;5015406;28;20397;-77
2023/01/07 01:02:48;;;;;;;18.00;15.93;;;;;;;-148.88;100.00;76199.75;5015263;28;20025;-77
2023/01/07 01:05:15;;;;;;;16.48;9.88;;;;;;;-148.88;100.00;76211.94;5015283;28;20022;-77
2023/01/07 01:07:40;;;;;;;19.35;16.58;;;;;;;-148.88;100.00;76207.88;5015098;28;20022;-77
2023/01/07 01:10:09;;;;;;;18.80;16.33;;;;;;;-148.88;100.00;76207.88;5014199;28;20029;-77
2023/01/07 01:12:35;;;;;;;15.68;8.70;;;;;;;-148.88;100.00;76207.88;5015284;28;20025;-77
2023/01/07 01:15:03;;;;;;;18.77;16.08;;;;;;;-148.88;100.00;76216.00;5015267;28;20022;-77
2023/01/07 01:17:28;;;;;;;19.05;16.25;;;;;;;-148.88;100.00;76203.81;4997190;28;20060;-77
2023/01/07 01:19:53;;;;;;;16.00;9.52;;;;;;;-148.88;100.00;76207.88;5013663;28;20021;-77
2023/01/07 01:22:18;;;;;;;20.60;16.65;;;;;;;-148.88;100.00;76211.94;4997447;28;20025;-78
2023/01/07 01:24:44;;;;;;;19.73;16.35;;;;;;;-148.88;100.00;76211.94;4997600;28;20026;-77
2023/01/07 01:27:09;;;;;;;18.27;16.10;;;;;;;-148.88;100.00;76209.91;5015439;28;20018;-79
2023/01/07 01:29:35;;;;;;;15.68;10.38;;;;;;;-148.88;100.00;76207.88;4997339;28;20026;-77
2023/01/07 01:32:00;;;;;;;18.63;16.30;;;;;;;-148.88;100.00;76201.78;5014598;28;20033;-77
2023/01/07 01:34:26;;;;;;;18.75;15.70;;;;;;;-148.88;100.00;76187.56;4996963;28;20554;-78
2023/01/07 01:36:51;;;;;;;16.58;9.45;;;;;;;-148.88;100.00;76187.56;5014056;28;20037;-77
2023/01/07 01:39:19;;;;;;;17.27;15.43;;;;;;;-148.88;100.00;76199.75;5014834;28;20025;-77
2023/01/07 01:41:45;;;;;;;18.73;15.50;;;;;;;-148.88;100.00;76205.84;5015303;28;20033;-78
2023/01/07 01:44:42;;;;;;;15.60;13.70;;;;;;;-148.88;100.00;76187.56;4996952;28;20441;-77
2023/01/07 01:47:26;;;;;;;15.68;14.15;;;;;;;-148.88;100.00;76183.50;4996659;28;20120;-77
2023/01/07 01:50:06;;;;;;;17.45;15.60;;;;;;;-148.88;100.00;76195.69;5013914;28;20038;-77
2023/01/07 01:52:42;;;;;;;16.38;14.68;;;;;;;-148.88;100.00;76195.69;4996983;28;20040;-77
2023/01/07 01:55:13;;;;;;;14.07;8.73;;;;;;;-148.88;100.00;76203.81;4996255;28;20025;-77
2023/01/07 01:57:38;;;;;;;17.52;9.02;;;;;;;-148.88;100.00;76195.69;4997409;28;20083;-78
2023/01/07 02:00:06;;;;;;;15.38;13.35;;;;;;;-148.88;100.00;76207.88;5014257;28;20100;-77
2023/01/07 02:02:43;;;;;;;14.90;13.30;;;;;;;-148.88;100.00;76207.88;4996682;28;20037;-78
2023/01/07 02:05:08;;;;;;;14.35;8.15;;;;;;;-148.88;100.00;76211.94;5014459;28;20029;-77
2023/01/07 02:07:59;;;;;;;12.27;7.13;;;;;;;-148.88;100.00;76209.91;4996670;28;20386;-77
2023/01/07 02:10:25;;;;;;;11.52;6.95;;;;;;;-148.88;100.00;76207.88;5014796;28;20026;-77
2023/01/07 02:13:19;;;;;;;16.40;13.15;;;;;;;-148.88;100.00;76197.72;5014631;28;20041;-78
2023/01/07 02:15:54;;;;;;;14.65;12.25;;;;;;;-148.88;100.00;76207.88;5014833;28;20080;-78
2023/01/07 02:18:35;;;;;;;15.07;13.45;;;;;;;-148.88;100.00;76203.81;5014241;28;20033;-77
2023/01/07 02:21:20;;;;;;;13.48;7.20;;;;;;;-148.88;100.00;76203.81;5014521;28;20030;-78
2023/01/07 02:24:09;;;;;;;12.80;11.50;;;;;;;-148.88;100.00;76203.81;5014822;28;20026;-77
2023/01/07 02:26:59;;;;;;;15.15;12.25;;;;;;;-148.88;100.00;76209.91;5015086;28;20029;-77
2023/01/07 02:29:40;;;;;;;15.15;12.20;;;;;;;-148.88;100.00;76207.88;5014628;28;20036;-77
2023/01/07 02:32:27;;;;;;;11.45;6.97;;;;;;;-148.88;100.00;76205.84;5014458;28;20434;-77
2023/01/07 02:35:07;;;;;;;14.98;12.27;;;;;;;-148.88;100.00;76207.88;5014011;28;20022;-78
2023/01/07 02:37:51;;;;;;;11.50;6.65;;;;;;;-148.88;100.00;76211.94;5012519;28;20022;-77
2023/01/07 02:40:49;;;;;;;13.60;11.82;;;;;;;-148.88;100.00;76211.94;5013672;28;20034;-78
2023/01/07 02:43:36;;;;;;;14.95;12.13;;;;;;;-148.88;100.00;76216.00;5014046;28;20033;-78
2023/01/07 02:46:20;;;;;;;11.07;6.70;;;;;;;-148.88;100.00;76213.97;5013928;28;20418;-78
2023/01/07 02:48:46;;;;;;;13.25;7.05;;;;;;;-148.88;100.00;76211.94;5015960;28;20049;-78
2023/01/07 02:51:11;;;;;;;14.02;12.07;;;;;;;-148.88;100.00;76195.69;5017742;28;20049;-77
2023/01/07 02:53:40;;;;;;;14.38;11.50;;;;;;;-148.88;100.00;76195.69;5017642;28;20057;-78
2023/01/07 02:56:30;;;;;;;13.18;11.77;;;;;;;-148.88;100.00;76195.69;4999943;28;20029;-77
2023/01/07 02:59:13;;;;;;;12.90;10.88;;;;;;;-148.88;100.00;76199.75;5016421;28;20026;-77
2023/01/07 03:02:08;;;;;;;9.07;5.43;;;;;;;-148.88;100.00;76199.75;5018039;28;20386;-76
2023/01/07 03:04:58;;;;;;;8.57;4.80;;;;;;;-148.88;100.00;76197.72;5017574;28;20053;-76
2023/01/07 03:07:36;;;;;;;9.27;5.18;;;;;;;-148.88;100.00;76195.69;5000331;28;20068;-77
2023/01/07 03:10:09;;;;;;;9.95;8.07;;;;;;;-148.88;100.00;76203.81;4999890;28;20025;-77
2023/01/07 03:12:45;;;;;;;8.95;5.38;;;;;;;-148.88;100.00;76193.66;5018059;28;20108;-77
2023/01/07 03:15:19;;;;;;;11.43;8.45;;;;;;;-148.88;100.00;76191.63;5017376;28;20030;-77
2023/01/07 03:17:53;;;;;;;10.25;4.85;;;;;;;-148.88;100.00;76193.66;5000084;28;20035;-77
2023/01/07 03:20:23;;;;;;;10.98;8.48;;;;;;;-148.88;100.00;76193.66;5017515;28;20089;-77
2023/01/07 03:22:49;;;;;;;9.40;4.80;;;;;;;-148.88;100.00;76191.63;5017068;28;20112;-77
2023/01/07 03:25:16;;;;;;;7.07;4.25;;;;;;;-148.88;100.00;76195.69;4999595;28;20018;-77
2023/01/07 03:27:45;;;;;;;9.07;7.75;;;;;;;-148.88;100.00;76189.59;5017435;28;20037;-77
2023/01/07 03:30:14;;;;;;;9.25;7.50;;;;;;;-148.88;100.00;76185.53;5017091;28;20025;-77
2023/01/07 03:33:09;;;;;;;8.70;6.80;;;;;;;-148.88;100.00;76187.56;5016988;28;20517;-77
2023/01/07 03:35:37;;;;;;;9.00;3.95;;;;;;;-148.88;100.00;76183.50;4999252;28;20439;-77
2023/01/07 03:38:03;;;;;;;9.05;4.20;;;;;;;-148.88;100.00;76183.50;5016806;28;20441;-77
2023/01/07 03:40:29;;;;;;;7.97;6.50;;;;;;;-148.88;100.00;76181.47;5016821;28;20029;-77
2023/01/07 03:42:54;;;;;;;6.30;5.68;;;;;;;-148.88;100.00;76179.44;5017221;28;20044;-77
2023/01/07 03:45:22;;;;;;;7.53;6.05;;;;;;;-148.88;100.00;76175.38;5016608;28;20080;-77
2023/01/07 03:47:50;;;;;;;6.68;5.40;;;;;;;-148.88;100.00;76169.28;4998716;28;20114;-77
2023/01/07 03:50:16;;;;;;;6.25;4.97;;;;;;;-148.88;100.00;76167.25;5015986;28;20462;-77
2023/01/07 03:52:41;;;;;;;6.05;5.05;;;;;;;-148.88;100.00;76167.25;5015945;28;20057;-77
2023/01/07 03:55:08;;;;;;;5.72;3.28;;;;;;;-148.88;100.00;76157.09;5015574;28;20029;-77
2023/01/07 03:57:33;;;;;;;5.50;4.80;;;;;;;-148.88;100.00;76155.06;5015753;28;20501;-77
2023/01/07 03:59:58;;;;;;;5.35;4.40;;;;;;;-148.88;100.00;76153.03;4997680;28;20034;-77
2023/01/07 04:02:25;;;;;;;5.78;2.72;;;;;;;-148.88;100.00;76151.00;4998289;28;20021;-77
2023/01/07 04:04:50;;;;;;;5.30;3.03;;;;;;;-148.88;100.00;76151.00;4998262;28;20036;-77
2023/01/07 04:07:15;;;;;;;6.18;2.42;;;;;;;-148.88;100.00;76153.03;5016695;28;20022;-77
2023/01/07 04:09:41;;;;;;;5.03;4.22;;;;;;;-148.88;100.00;76155.06;5016465;28;20036;-77
2023/01/07 04:12:06;;;;;;;5.10;2.63;;;;;;;-148.88;100.00;76155.06;5016338;28;20112;-77
2023/01/07 04:14:32;;;;;;;4.22;2.50;;;;;;;-148.88;100.00;76151.00;5015887;28;20029;-77
2023/01/07 04:16:57;;;;;;;4.78;3.45;;;;;;;-148.88;100.00;76148.97;5016098;28;20076;-77
2023/01/07 04:19:22;;;;;;;4.55;3.33;;;;;;;-148.88;100.00;76151.00;5015790;28;20025;-77
2023/01/07 04:21:48;;;;;;;4.70;3.30;;;;;;;-148.88;100.00;76151.00;5015411;28;20406;-76
2023/01/07 04:24:13;;;;;;;3.30;2.08;;;;;;;-148.88;100.00;76151.00;4997924;28;20025;-77
2023/01/07 04:26:39;;;;;;;4.25;2.80;;;;;;;-148.88;100.00;76151.00;4997986;28;20026;-77
2023/01/07 04:29:04;;;;;;;3.85;2.60;;;;;;;-148.88;100.00;76146.94;5015541;28;20038;-77
2023/01/07 04:31:30;;;;;;;3.58;2.50;;;;;;;-148.88;100.00;76146.94;5015201;28;20049;-77
2023/01/07 04:33:55;;;;;;;3.42;2.60;;;;;;;-148.88;100.00;76144.91;5015205;28;20501;-77
2023/01/07 04:36:20;;;;;;;5.38;3.03;;;;;;;-148.88;100.00;76142.88;5014843;28;20084;-77
2023/01/07 04:38:46;;;;;;;3.75;1.88;;;;;;;-148.88;100.00;76142.88;5015052;28;20021;-77
2023/01/07 04:41:11;;;;;;;2.88;1.67;;;;;;;-148.88;100.00;76142.88;4997312;28;20398;-77
2023/01/07 04:43:36;;;;;;;3.03;1.92;;;;;;;-148.88;100.00;76138.81;5014738;28;20454;-77
2023/01/07 04:46:02;;;;;;;2.67;1.63;;;;;;;-148.88;100.00;76142.88;4997389;28;20025;-77
2023/01/07 04:48:28;;;;;;;3.33;1.38;;;;;;;-148.88;100.00;76144.91;4999086;28;20033;-77
2023/01/07 04:50:53;;;;;;;2.60;2.08;;;;;;;-148.88;100.00;76136.78;5014763;28;20050;-77
2023/01/07 04:53:21;;;;;;;2.53;2.03;;;;;;;-148.88;100.00;76146.94;5013150;28;20437;-77
2023/01/07 04:55:46;;;;;;;3.78;1.80;;;;;;;-148.88;100.00;76144.91;5014355;28;20022;-77
2023/01/07 04:58:12;;;;;;;2.55;1.55;;;;;;;-148.88;100.00;76151.00;5014877;28;20084;-77
2023/01/07 05:00:37;;;;;;;2.65;1.60;;;;;;;-148.88;100.00;76144.91;5014445;28;20037;-77
2023/01/07 05:03:02;;;;;;;2.88;1.50;;;;;;;-148.88;100.00;76138.81;5014415;28;20022;-77
2023/01/07 05:05:27;;;;;;;2.47;1.75;;;;;;;-148.88;100.00;76146.94;5012806;28;20045;-77
2023/01/07 05:07:53;;;;;;;2.85;1.33;;;;;;;-148.88;100.00;76142.88;5012926;28;20033;-77
2023/01/07 05:10:18;;;;;;;2.72;1.20;;;;;;;-148.88;100.00;76138.81;5012852;28;20022;-77
2023/01/07 05:12:44;;;;;;;2.50;1.80;;;;;;;-148.88;100.00;76144.91;5014153;28;20042;-77
2023/01/07 05:15:09;;;;;;;4.18;1.75;;;;;;;-148.88;100.00;76144.91;5014277;28;20029;-77
2023/01/07 05:17:35;;;;;;;2.90;1.73;;;;;;;-148.88;100.00;76157.09;5014142;28;20375;-77
2023/01/07 05:20:00;;;;;;;2.38;1.65;;;;;;;-148.88;100.00;76151.00;5012737;28;20026;-77
2023/01/07 05:22:26;;;;;;;2.90;1.90;;;;;;;-148.88;100.00;76153.03;5012778;28;20037;-77
2023/01/07 05:24:51;;;;;;;2.85;1.20;;;;;;;-148.88;100.00;76155.06;5012767;28;20037;-77
2023/01/07 05:27:16;;;;;;;1.63;1.20;;;;;;;-148.88;100.00;76159.13;5013957;28;20021;-77
2023/01/07 05:29:42;;;;;;;2.33;1.20;;;;;;;-148.88;100.00;76163.19;5014090;28;20044;-76
2023/01/07 05:32:07;;;;;;;2.58;1.80;;;;;;;-148.88;100.00;76163.19;5012692;28;20442;-77
2023/01/07 05:34:32;;;;;;;4.07;1.75;;;;;;;-148.88;100.00;76155.06;5013894;28;20553;-77
2023/01/07 05:36:58;;;;;;;2.40;1.95;;;;;;;-148.88;100.00;76157.09;5012353;28;20030;-77
2023/01/07 05:39:23;;;;;;;3.40;1.45;;;;;;;-148.88;100.00;76155.06;5012362;28;20029;-77
2023/01/07 05:41:48;;;;;;;3.38;1.85;;;;;;;-148.88;100.00;76151.00;5012362;28;20131;-77
2023/01/07 05:44:13;;;;;;;2.03;1.00;;;;;;;-148.88;100.00;76155.06;5013534;28;20022;-77
2023/01/07 05:46:39;;;;;;;3.08;1.42;;;;;;;-148.88;100.00;76151.00;5012344;28;20025;-77
2023/01/07 05:49:04;;;;;;;2.28;1.30;;;;;;;-148.88;100.00;76161.16;5012514;28;20044;-77
2023/01/07 05:51:30;;;;;;;4.00;1.50;;;;;;;-148.88;100.00;76159.13;5012619;28;20022;-77
2023/01/07 05:53:55;;;;;;;1.70;1.13;;;;;;;-148.88;100.00;76163.19;5011985;28;20058;-77
2023/01/07 05:56:20;;;;;;;4.57;1.38;;;;;;;-148.88;100.00;76163.19;5013111;28;20037;-76
2023/01/07 05:58:46;;;;;;;2.38;1.40;;;;;;;-148.88;100.00;76165.22;5011870;28;20026;-76
2023/01/07 06:01:11;;;;;;;2.38;1.88;;;;;;;-148.88;100.00;76163.19;5013255;28;20034;-77
2023/01/07 06:03:37;;;;;;;2.20;1.48;;;;;;;-148.88;100.00;76169.28;5011863;28;20482;-76
2023/01/07 06:06:06;;;;;;;3.83;1.50;;;;;;;-148.88;100.00;76167.25;5013455;28;20029;-76
2023/01/07 06:08:36;;;;;;;2.55;1.38;;;;;;;-148.88;100.00;76173.34;5011869;28;20026;-76
2023/01/07 06:11:02;;;;;;;2.67;1.50;;;;;;;-148.88;100.00;76165.22;5013113;28;20026;-76
2023/01/07 06:13:28;;;;;;;3.08;1.30;;;;;;;-148.88;100.00;76167.25;5013052;28;20025;-76
2023/01/07 06:15:59;;;;;;;2.53;1.60;;;;;;;-148.88;100.00;76171.31;5013042;28;20025;-76
2023/01/07 06:18:25;;;;;;;3.35;1.73;;;;;;;-148.88;100.00;76165.22;5012960;28;20026;-77
2023/01/07 06:20:50;;;;;;;2.75;2.13;;;;;;;-148.88;100.00;76171.31;5013507;28;20036;-77
2023/01/07 06:23:15;;;;;;;3.10;1.27;;;;;;;-148.88;100.00;76167.25;5012691;28;20479;-76
2023/01/07 06:25:40;;;;;;;2.63;2.00;;;;;;;-148.88;100.00;76171.31;5016968;28;20032;-77
2023/01/07 06:28:06;;;;;;;3.33;1.73;;;;;;;-148.88;100.00;76167.25;5016807;28;20018;-76
2023/01/07 06:30:31;;;;;;;2.95;1.73;;;;;;;-148.88;100.00;76163.19;5016781;28;20030;-76
2023/01/07 06:32:56;;;;;;;2.80;1.42;;;;;;;-148.88;100.00;76155.06;5016822;28;20041;-76
2023/01/07 06:35:22;;;;;;;4.45;2.13;;;;;;;-148.88;100.00;76155.06;5016699;28;20486;-76
2023/01/07 06:37:47;;;;;;;2.25;1.40;;;;;;;-148.88;100.00;76159.13;5016939;28;20018;-76
2023/01/07 06:40:12;;;;;;;2.40;1.40;;;;;;;-148.88;100.00;76157.09;5016621;28;20483;-76
2023/01/07 06:42:38;;;;;;;2.88;2.10;;;;;;;-148.88;100.00;76161.16;5016654;28;20026;-76
2023/01/07 06:45:04;;;;;;;3.50;1.55;;;;;;;-148.88;100.00;76157.09;5016549;28;20032;-76
2023/01/07 06:47:29;;;;;;;3.17;1.70;;;;;;;-148.88;100.00;76142.88;5015263;28;20478;-76
2023/01/07 06:49:54;;;;;;;3.03;1.42;;;;;;;-148.88;100.00;76146.94;5016395;28;20037;-77
2023/01/07 06:52:20;;;;;;;3.70;1.60;;;;;;;-148.88;100.00;76134.72;4999486;28;20032;-78
2023/01/07 06:54:45;;;;;;;6.28;1.60;;;;;;;-148.88;100.00;76146.94;5018016;28;20482;-78
2023/01/07 06:57:10;;;;;;;2.47;1.52;;;;;;;-148.88;100.00;76144.91;5001966;28;20018;-77
2023/01/07 06:59:36;;;;;;;3.30;2.33;;;;;;;-148.88;100.00;76151.00;5016622;28;20029;-78
2023/01/07 07:02:01;;;;;;;2.95;1.75;;;;;;;-148.88;100.00;76140.84;5018579;28;20473;-78
2023/01/07 07:04:26;;;;;;;4.47;2.40;;;;;;;-148.88;100.00;76130.69;5016631;28;20033;-77
2023/01/07 07:06:51;;;;;;;3.67;2.30;;;;;;;-148.88;100.00;76134.72;5016885;28;20018;-77
2023/01/07 07:09:17;;;;;;;4.32;2.33;;;;;;;-148.88;100.00;76134.72;5016216;28;20029;-77
2023/01/07 07:11:42;;;;;;;5.18;2.92;;;;;;;-148.88;100.00;76142.88;5016175;28;20030;-77
2023/01/07 07:14:08;;;;;;;4.53;2.55;;;;;;;-148.88;100.00;76136.78;5016554;28;20029;-77
2023/01/07 07:16:33;;;;;;;3.35;2.20;;;;;;;-148.88;100.00;76140.84;4999489;28;20505;-75
2023/01/07 07:18:59;;;;;;;4.03;3.00;;;;;;;-148.88;100.00;76130.69;5017093;28;20018;-76
2023/01/07 07:21:24;;;;;;;3.75;2.30;;;;;;;-148.88;100.00;76134.72;4998778;28;20021;-76
2023/01/07 07:23:49;;;;;;;4.07;2.13;;;;;;;-148.88;100.00;76136.78;5017371;28;20100;-77
2023/01/07 07:26:14;;;;;;;4.57;2.25;;;;;;;-148.88;100.00;76138.81;5017616;28;20486;-78
2023/01/07 07:28:43;;;;;;;4.18;3.15;;;;;;;-148.88;100.00;76142.88;5000216;28;20163;-77
2023/01/07 07:31:09;;;;;;;3.72;2.20;;;;;;;-148.88;100.00;76142.88;5015991;28;20030;-77
2023/01/07 07:33:34;;;;;;;4.55;2.38;;;;;;;-148.88;100.00;76130.69;4997902;28;20394;-77
2023/01/07 07:36:00;;;;;;;3.42;1.88;;;;;;;-148.88;100.00;76142.88;4996780;28;20034;-77
2023/01/07 07:38:25;;;;;;;4.20;2.15;;;;;;;-148.88;100.00;76144.91;5015524;28;20025;-77
2023/01/07 07:40:50;;;;;;;6.22;1.90;;;;;;;-148.88;100.00;76146.94;5015542;28;20088;-77
2023/01/07 07:43:16;;;;;;;5.00;2.65;;;;;;;-148.88;100.00;76151.00;5015456;28;20112;-77
2023/01/07 07:45:41;;;;;;;3.92;2.20;;;;;;;-148.88;100.00;76142.88;5015551;28;20029;-77
2023/01/07 07:48:08;;;;;;;3.85;2.30;;;;;;;-148.88;100.00;76146.94;5015517;28;20032;-77
2023/01/07 07:50:34;;;;;;;7.68;3.88;;;;;;;-148.88;100.00;76140.84;4997975;28;20025;-76
2023/01/07 07:53:00;;;;;;;3.55;2.35;;;;;;;-148.88;100.00;76144.91;5015301;28;20033;-76
2023/01/07 07:55:25;;;;;;;4.97;2.30;;;;;;;-148.88;100.00;76138.81;5015211;28;20026;-77
2023/01/07 07:57:55;;;;;;;3.95;2.40;;;;;;;-148.88;100.00;76142.88;5016672;28;20425;-77
2023/01/07 08:00:21;;;;;;;4.32;2.28;;;;;;;-148.88;100.00;76140.84;5016644;28;20106;-77
2023/01/07 08:02:46;;;;;;;4.45;2.22;;;;;;;-148.88;100.00;76134.72;5016252;28;20397;-77
2023/01/07 08:05:11;;;;;;;5.80;2.33;;;;;;;-148.88;100.00;76134.72;5015756;28;20029;-77
2023/01/07 08:07:38;;;;;;;3.53;1.83;;;;;;;-148.88;100.00;76134.72;4999702;28;20044;-78
2023/01/07 08:10:04;;;;;;;4.40;2.00;;;;;;;-148.88;100.00;76142.88;5000710;28;20050;-77
2023/01/07 08:12:30;;;;;;;5.90;2.05;;;;;;;-148.88;100.00;76151.00;5014898;28;20033;-76
2023/01/07 08:14:55;;;;;;;3.15;2.47;;;;;;;-148.88;100.00;76146.94;5014819;28;20018;-77
2023/01/07 08:17:21;;;;;;;7.75;2.00;;;;;;;-148.88;100.00;76142.88;4997141;28;20033;-77
2023/01/07 08:19:46;;;;;;;2.67;1.50;;;;;;;-148.88;100.00;76146.94;5014713;28;20544;-77
2023/01/07 08:22:11;;;;;;;2.03;1.45;;;;;;;-148.88;100.00;76142.88;5014692;28;20018;-77
2023/01/07 08:24:37;;;;;;;2.75;1.80;;;;;;;-148.88;100.00;76142.88;5014693;28;20052;-76
2023/01/07 08:27:02;;;;;;;3.08;2.10;;;;;;;-148.88;100.00;76138.81;5014745;28;20029;-76
2023/01/07 08:29:27;;;;;;;3.97;1.73;;;;;;;-148.88;100.00;76132.72;5014595;28;20022;-76
2023/01/07 08:31:53;;;;;;;3.92;2.75;;;;;;;-148.88;100.00;76122.56;5014662;28;20022;-76
2023/01/07 08:34:18;;;;;;;3.63;1.88;;;;;;;-148.88;100.00;76124.56;4996760;28;20459;-76
2023/01/07 08:36:43;;;;;;;4.50;2.58;;;;;;;-148.88;100.00;76124.56;5014365;28;20022;-77
2023/01/07 08:39:10;;;;;;;4.13;2.30;;;;;;;-148.88;100.00;76118.47;4996742;28;20544;-76
2023/01/07 08:41:35;;;;;;;2.80;1.60;;;;;;;-148.88;100.00;76102.22;5014595;28;20482;-77
2023/01/07 08:44:00;;;;;;;2.55;1.40;;;;;;;-148.88;100.00;76092.06;5014261;28;20029;-76
2023/01/07 08:46:26;;;;;;;2.95;2.15;;;;;;;-148.88;100.00;76096.13;5014236;28;20018;-77
2023/01/07 08:48:51;;;;;;;2.97;1.70;;;;;;;-148.88;100.00;76081.91;5014947;28;20061;-78
2023/01/07 08:51:16;;;;;;;2.67;1.90;;;;;;;-148.88;100.00;76077.84;5015713;28;20071;-77
2023/01/07 08:53:42;;;;;;;2.53;1.55;;;;;;;-148.88;100.00;76073.78;5015688;28;20466;-77
2023/01/07 08:56:07;;;;;;;2.63;1.52;;;;;;;-148.88;100.00;76069.72;5015631;28;20084;-77
2023/01/07 08:58:32;;;;;;;2.50;1.65;;;;;;;-148.88;100.00;76055.50;4998290;28;20117;-78
2023/01/07 09:01:04;;;;;;;3.90;2.00;;;;;;;-148.88;100.00;76045.34;4998710;28;20034;-77
2023/01/07 09:03:29;;;;;;;2.78;1.40;;;;;;;-148.88;100.00;76045.34;4997998;28;20030;-77
2023/01/07 09:05:55;;;;;;;3.15;1.60;;;;;;;-148.88;100.00;76043.31;5015924;28;20037;-77
2023/01/07 09:08:20;;;;;;;3.00;1.75;;;;;;;-148.88;100.00;76033.16;4998929;28;20029;-77
2023/01/07 09:10:46;;;;;;;2.35;1.67;;;;;;;-148.88;100.00;76033.16;4998123;28;20129;-77
2023/01/07 09:13:11;;;;;;;2.90;1.17;;;;;;;-148.88;100.00;76027.06;4997690;28;20549;-77
2023/01/07 09:15:36;;;;;;;2.80;1.90;;;;;;;-148.88;100.00;76029.09;5015032;28;20029;-78
2023/01/07 09:18:02;;;;;;;3.22;1.50;;;;;;;-148.88;100.00;76020.97;4996761;28;20026;-77
2023/01/07 09:20:30;;;;;;;2.75;1.80;;;;;;;-148.88;100.00;76012.84;4996466;28;20120;-77
2023/01/07 09:22:55;;;;;;;2.50;1.30;;;;;;;-148.88;100.00;76016.91;5014082;28;20025;-77
2023/01/07 09:25:20;;;;;;;2.53;1.83;;;;;;;-148.88;100.00;76010.81;5013929;28;20026;-77
2023/01/07 09:27:46;;;;;;;3.13;2.20;;;;;;;-148.88;100.00;76010.81;5014258;28;20099;-77
2023/01/07 09:30:11;;;;;;;3.17;2.00;;;;;;;-148.88;100.00;76002.69;4996536;28;20458;-77
2023/01/07 09:32:37;;;;;;;2.17;1.30;;;;;;;-148.88;100.00;75992.53;5015795;28;20073;-77
2023/01/07 09:35:04;;;;;;;2.88;1.38;;;;;;;-148.88;100.00;75992.53;5014580;28;20041;-77
2023/01/07 09:37:29;;;;;;;2.00;1.15;;;;;;;-148.88;100.00;75992.53;5014807;28;20076;-77
2023/01/07 09:39:55;;;;;;;2.90;1.50;;;;;;;-148.88;100.00;75986.44;5014074;28;20390;-77
2023/01/07 09:42:23;;;;;;;2.35;1.38;;;;;;;-148.88;100.00;75976.28;5016607;28;20110;-78
2023/01/07 09:45:14;;;;;;;2.13;1.48;;;;;;;-148.88;100.00;75974.25;5000262;28;20025;-78
2023/01/07 09:47:44;;;;;;;3.72;1.10;;;;;;;-148.88;100.00;75972.22;5014667;28;20025;-77
2023/01/07 09:50:21;;;;;;;2.53;0.80;;;;;;;-148.88;100.00;75966.13;5013964;28;20180;-78
2023/01/07 09:52:50;;;;;;;2.08;1.00;;;;;;;-148.88;100.00;75968.16;5014569;28;20147;-77
2023/01/07 09:55:30;;;;;;;2.80;1.55;;;;;;;-148.88;100.00;75964.09;4996050;28;20021;-77
2023/01/07 09:57:56;;;;;;;4.55;2.45;;;;;;;-148.88;100.00;75958.00;5012618;28;20029;-77
2023/01/07 10:00:23;;;;;;;3.45;2.42;;;;;;;-148.88;100.00;75968.16;5013001;28;20026;-77
2023/01/07 10:03:25;;;;;;;2.25;1.30;;;;;;;-148.88;100.00;75958.00;4996223;28;20025;-77
2023/01/07 10:06:13;;;;;;;2.33;1.20;;;;;;;-148.88;100.00;75960.03;5014588;28;20026;-77
2023/01/07 10:09:01;;;;;;;2.22;1.13;;;;;;;-148.88;100.00;75955.97;5013212;28;20031;-77
2023/01/07 10:11:59;;;;;;;1.75;1.10;;;;;;;-148.88;100.00;75960.03;4996531;28;20025;-77
2023/01/07 10:14:37;;;;;;;2.05;1.33;;;;;;;-148.88;100.00;75958.00;5013210;28;20224;-77
2023/01/07 10:17:26;;;;;;;2.08;0.93;;;;;;;-148.88;100.00;75960.03;5012370;28;20026;-76
2023/01/07 10:20:03;;;;;;;2.22;1.00;;;;;;;-148.88;100.00;75955.97;4995043;28;20109;-77
2023/01/07 10:22:43;;;;;;;2.30;0.90;;;;;;;-148.88;100.00;75951.91;5012653;28;20026;-76
2023/01/07 10:25:21;;;;;;;3.25;1.20;;;;;;;-148.88;100.00;75955.97;5012787;28;20030;-77
2023/01/07 10:27:48;;;;;;;2.42;1.20;;;;;;;-148.88;100.00;75945.81;5012537;28;20022;-77
2023/01/07 10:30:24;;;;;;;2.90;1.23;;;;;;;-148.88;100.00;75943.78;5012732;28;20029;-77
2023/01/07 10:33:01;;;;;;;1.77;1.10;;;;;;;-148.88;100.00;75947.84;5012504;28;20018;-77
2023/01/07 10:35:29;;;;;;;2.38;1.00;;;;;;;-148.88;100.00;75939.72;4994935;28;20033;-77
2023/01/07 10:38:00;;;;;;;2.00;1.23;;;;;;;-148.88;100.00;75935.66;5012292;28;20037;-77
2023/01/07 10:40:29;;;;;;;2.80;1.15;;;;;;;-148.88;100.00;75937.69;4994683;28;20553;-77
2023/01/07 10:43:03;;;;;;;1.23;0.73;;;;;;;-148.88;100.00;75927.53;4994760;28;20045;-77
2023/01/07 10:45:44;;;;;;;1.88;1.15;;;;;;;-148.88;100.00;75931.59;4995419;28;20022;-77
2023/01/07 10:48:48;;;;;;;2.78;0.75;;;;;;;-148.88;100.00;75921.44;5013150;28;20030;-77
2023/01/07 10:51:32;;;;;;;;;;;;;;;-148.88;100.00;75923.47;5014664;28;20033;-78
2023/01/07 10:54:09;;;;;;;1.20;0.70;;;;;;;-148.88;100.00;75919.41;5012869;28;20064;-77
2023/01/07 10:56:41;;;;;;;2.25;0.60;;;;;;;-148.88;100.00;75919.41;5012279;28;20084;-77
2023/01/07 10:59:14;;;;;;;1.67;0.70;;;;;;;-148.88;100.00;75907.22;5012362;28;20429;-77
2023/01/07 11:01:45;;;;;;;4.80;1.00;;;;;;;-148.88;100.00;75907.22;5012116;28;20033;-76
2023/01/07 11:04:13;;;;;;;1.90;0.68;;;;;;;-148.88;100.00;75903.16;4994357;28;20029;-76
2023/01/07 11:07:09;;;;;;;1.95;0.90;;;;;;;-148.88;100.00;75895.03;4994353;28;20459;-76
2023/01/07 11:09:40;;;;;;;2.85;0.98;;;;;;;-148.88;100.00;75895.03;4995870;28;20030;-77
2023/01/07 11:12:36;;;;;;;1.45;0.70;;;;;;;-148.88;99.59;75884.88;5016011;28;20026;-77
2023/01/07 11:15:12;;;;;;;1.42;0.75;;;;;;;-148.88;99.81;75882.84;5015595;28;20176;-77
2023/01/07 11:17:50;;;;;;;2.67;1.00;;;;;;;-148.88;99.14;75876.75;5015737;28;20113;-77